sensor_id;sensor_type;location;lat;lon;timestamp;pressure;altitude;pressure_sealevel;temperature;humidity
8451;BME280;4262;50.980;13.892;2022-10-16T05:01:25;50830.84;;;-142.97;78.32
8451;BME280;4262;50.980;13.892;2022-10-16T05:03:51;50832.78;;;-142.97;77.83
8451;BME280;4262;50.980;13.892;2022-10-16T05:06:18;50848.38;;;-142.97;77.77
8451;BME280;4262;50.980;13.892;2022-10-16T05:08:45;50860.09;;;-142.97;77.41
8451;BME280;4262;50.980;13.892;2022-10-16T05:11:12;50850.34;;;-142.97;78.11
8451;BME280;4262;50.980;13.892;2022-10-16T05:13:38;50830.84;;;-142.97;78.78
8451;BME280;4262;50.980;13.892;2022-10-16T05:16:06;50813.28;;;-142.97;78.87
8451;BME280;4262;50.980;13.892;2022-10-16T05:18:34;50848.38;;;-142.97;78.56
8451;BME280;4262;50.980;13.892;2022-10-16T05:21:01;50850.34;;;-142.97;78.27
8451;BME280;4262;50.980;13.892;2022-10-16T05:23:28;50824.97;;;-142.97;78.22
8451;BME280;4262;50.980;13.892;2022-10-16T05:25:56;50832.78;;;-142.97;78.24
8451;BME280;4262;50.980;13.892;2022-10-16T05:28:24;50846.44;;;-142.97;78.10
8451;BME280;4262;50.980;13.892;2022-10-16T05:30:51;50838.63;;;-142.97;77.70
8451;BME280;4262;50.980;13.892;2022-10-16T05:33:20;50801.59;;;-142.97;78.13
8451;BME280;4262;50.980;13.892;2022-10-16T05:35:48;50791.84;;;-142.97;78.59
8451;BME280;4262;50.980;13.892;2022-10-16T05:38:15;50840.59;;;-142.97;78.57
8451;BME280;4262;50.980;13.892;2022-10-16T05:40:43;50823.03;;;-142.97;78.52
8451;BME280;4262;50.980;13.892;2022-10-16T05:43:10;50828.88;;;-142.97;78.02
8451;BME280;4262;50.980;13.892;2022-10-16T05:45:36;50856.19;;;-142.97;78.02
8451;BME280;4262;50.980;13.892;2022-10-16T05:48:03;50834.72;;;-142.97;78.06
8451;BME280;4262;50.980;13.892;2022-10-16T05:50:30;50797.69;;;-142.97;77.60
8451;BME280;4262;50.980;13.892;2022-10-16T05:52:58;50828.88;;;-142.97;77.10
8451;BME280;4262;50.980;13.892;2022-10-16T05:55:25;50817.19;;;-142.97;76.74
8451;BME280;4262;50.980;13.892;2022-10-16T05:57:54;50819.13;;;-142.97;77.49
8451;BME280;4262;50.980;13.892;2022-10-16T06:00:21;50834.72;;;-142.97;78.25
8451;BME280;4262;50.980;13.892;2022-10-16T06:02:47;50842.53;;;-142.97;77.94
8451;BME280;4262;50.980;13.892;2022-10-16T06:05:14;50832.78;;;-142.97;77.94
8451;BME280;4262;50.980;13.892;2022-10-16T06:07:41;50805.50;;;-142.97;78.21
8451;BME280;4262;50.980;13.892;2022-10-16T06:10:10;50848.38;;;-142.97;78.58
8451;BME280;4262;50.980;13.892;2022-10-16T06:12:37;50863.97;;;-142.97;78.19
8451;BME280;4262;50.980;13.892;2022-10-16T06:15:04;50836.69;;;-142.97;77.44
8451;BME280;4262;50.980;13.892;2022-10-16T06:17:31;50797.69;;;-142.97;77.80
8451;BME280;4262;50.980;13.892;2022-10-16T06:19:58;50844.47;;;-142.97;78.30
8451;BME280;4262;50.980;13.892;2022-10-16T06:22:24;50842.53;;;-142.97;78.38
8451;BME280;4262;50.980;13.892;2022-10-16T06:24:51;50805.50;;;-142.97;78.11
8451;BME280;4262;50.980;13.892;2022-10-16T06:27:19;50795.75;;;-142.97;78.40
8451;BME280;4262;50.980;13.892;2022-10-16T06:29:46;50824.97;;;-142.97;78.34
8451;BME280;4262;50.980;13.892;2022-10-16T06:32:13;50784.03;;;-142.97;78.14
8451;BME280;4262;50.980;13.892;2022-10-16T06:34:40;50809.38;;;-142.97;77.36
8451;BME280;4262;50.980;13.892;2022-10-16T06:37:06;50803.53;;;-142.97;77.77
8451;BME280;4262;50.980;13.892;2022-10-16T06:39:33;50799.63;;;-142.97;77.88
8451;BME280;4262;50.980;13.892;2022-10-16T06:42:00;50793.78;;;-142.97;76.48
8451;BME280;4262;50.980;13.892;2022-10-16T06:44:34;50801.59;;;-142.97;76.98
8451;BME280;4262;50.980;13.892;2022-10-16T06:47:01;50832.78;;;-142.97;77.12
8451;BME280;4262;50.980;13.892;2022-10-16T06:49:28;50809.38;;;-142.97;77.55
8451;BME280;4262;50.980;13.892;2022-10-16T06:51:55;50784.03;;;-142.97;77.06
8451;BME280;4262;50.980;13.892;2022-10-16T06:54:22;50819.13;;;-142.97;76.63
8451;BME280;4262;50.980;13.892;2022-10-16T06:56:51;50782.09;;;-142.97;76.79
8451;BME280;4262;50.980;13.892;2022-10-16T06:59:19;50784.03;;;-142.97;76.05
8451;BME280;4262;50.980;13.892;2022-10-16T07:01:48;50778.19;;;-142.97;75.59
8451;BME280;4262;50.980;13.892;2022-10-16T07:04:15;50823.03;;;-142.97;75.93
8451;BME280;4262;50.980;13.892;2022-10-16T07:06:42;50805.50;;;-142.97;76.39
8451;BME280;4262;50.980;13.892;2022-10-16T07:09:10;50797.69;;;-142.97;76.03
8451;BME280;4262;50.980;13.892;2022-10-16T07:11:38;50836.69;;;-142.97;75.80
8451;BME280;4262;50.980;13.892;2022-10-16T07:14:12;50817.19;;;-142.97;76.26
8451;BME280;4262;50.980;13.892;2022-10-16T07:16:41;50826.94;;;-142.97;75.41
8451;BME280;4262;50.980;13.892;2022-10-16T07:19:10;50809.38;;;-142.97;75.86
8451;BME280;4262;50.980;13.892;2022-10-16T07:21:39;50815.22;;;-142.97;75.45
8451;BME280;4262;50.980;13.892;2022-10-16T07:24:07;50797.69;;;-142.97;74.75
8451;BME280;4262;50.980;13.892;2022-10-16T07:26:37;50834.72;;;-142.97;74.41
8451;BME280;4262;50.980;13.892;2022-10-16T07:29:05;50791.84;;;-142.97;75.13
8451;BME280;4262;50.980;13.892;2022-10-16T07:31:33;50811.34;;;-142.97;75.27
8451;BME280;4262;50.980;13.892;2022-10-16T07:34:00;50815.22;;;-142.97;75.16
8451;BME280;4262;50.980;13.892;2022-10-16T07:36:29;50789.88;;;-142.97;74.00
8451;BME280;4262;50.980;13.892;2022-10-16T07:38:56;50834.72;;;-142.97;73.71
8451;BME280;4262;50.980;13.892;2022-10-16T07:41:23;50838.63;;;-142.97;74.01
8451;BME280;4262;50.980;13.892;2022-10-16T07:43:51;50807.44;;;-142.97;74.23
8451;BME280;4262;50.980;13.892;2022-10-16T07:46:19;50805.50;;;-142.97;74.08
8451;BME280;4262;50.980;13.892;2022-10-16T07:48:50;50815.22;;;-142.97;74.25
8451;BME280;4262;50.980;13.892;2022-10-16T07:51:36;50832.78;;;-142.97;73.81
8451;BME280;4262;50.980;13.892;2022-10-16T07:54:03;50809.38;;;-142.97;74.58
8451;BME280;4262;50.980;13.892;2022-10-16T07:56:31;50817.19;;;-142.97;74.77
8451;BME280;4262;50.980;13.892;2022-10-16T07:58:58;50815.22;;;-142.97;74.07
8451;BME280;4262;50.980;13.892;2022-10-16T08:01:25;50821.09;;;-142.97;74.28
8451;BME280;4262;50.980;13.892;2022-10-16T08:03:52;50801.59;;;-142.97;73.30
8451;BME280;4262;50.980;13.892;2022-10-16T08:06:20;50809.38;;;-142.97;73.21
8451;BME280;4262;50.980;13.892;2022-10-16T08:08:49;50858.13;;;-142.97;73.03
8451;BME280;4262;50.980;13.892;2022-10-16T08:11:16;50830.84;;;-142.97;73.22
8451;BME280;4262;50.980;13.892;2022-10-16T08:13:42;50834.72;;;-142.97;73.37
8451;BME280;4262;50.980;13.892;2022-10-16T08:16:10;50809.38;;;-142.97;72.89
8451;BME280;4262;50.980;13.892;2022-10-16T08:18:38;50817.19;;;-142.97;72.93
8451;BME280;4262;50.980;13.892;2022-10-16T08:21:06;50760.63;;;-142.97;72.23
8451;BME280;4262;50.980;13.892;2022-10-16T08:23:34;50811.34;;;-142.97;71.13
8451;BME280;4262;50.980;13.892;2022-10-16T08:26:06;50821.09;;;-142.97;70.05
8451;BME280;4262;50.980;13.892;2022-10-16T08:28:34;50791.84;;;-142.97;69.24
8451;BME280;4262;50.980;13.892;2022-10-16T08:31:05;50785.97;;;-142.97;67.67
8451;BME280;4262;50.980;13.892;2022-10-16T08:33:32;50830.84;;;-142.97;67.98
8451;BME280;4262;50.980;13.892;2022-10-16T08:36:00;50793.78;;;-142.97;67.90
8451;BME280;4262;50.980;13.892;2022-10-16T08:38:27;50803.53;;;-142.97;66.00
8451;BME280;4262;50.980;13.892;2022-10-16T08:41:00;50801.59;;;-142.97;66.45
8451;BME280;4262;50.980;13.892;2022-10-16T08:43:43;50791.84;;;-142.97;65.90
8451;BME280;4262;50.980;13.892;2022-10-16T08:46:21;50799.63;;;-142.97;65.74
8451;BME280;4262;50.980;13.892;2022-10-16T08:48:53;50774.28;;;-142.97;65.69
8451;BME280;4262;50.980;13.892;2022-10-16T08:51:23;50793.78;;;-142.97;64.44
8451;BME280;4262;50.980;13.892;2022-10-16T08:53:53;50752.84;;;-142.97;64.34
8451;BME280;4262;50.980;13.892;2022-10-16T08:56:22;50752.84;;;-142.97;63.59
8451;BME280;4262;50.980;13.892;2022-10-16T08:58:53;50797.69;;;-142.97;62.69
8451;BME280;4262;50.980;13.892;2022-10-16T09:01:22;50787.94;;;-142.97;62.45
8451;BME280;4262;50.980;13.892;2022-10-16T09:04:01;50758.69;;;-142.97;62.38
8451;BME280;4262;50.980;13.892;2022-10-16T09:06:41;50772.34;;;-142.97;62.53
8451;BME280;4262;50.980;13.892;2022-10-16T09:09:24;50754.78;;;-142.97;62.15
8451;BME280;4262;50.980;13.892;2022-10-16T09:12:01;50750.88;;;-142.97;61.54
8451;BME280;4262;50.980;13.892;2022-10-16T09:14:50;50760.63;;;-142.97;61.49
8451;BME280;4262;50.980;13.892;2022-10-16T09:17:31;50747.00;;;-142.97;60.48
8451;BME280;4262;50.980;13.892;2022-10-16T09:20:13;50733.34;;;-142.97;60.47
8451;BME280;4262;50.980;13.892;2022-10-16T09:23:10;50754.78;;;-142.97;59.65
8451;BME280;4262;50.980;13.892;2022-10-16T09:25:42;50787.94;;;-142.97;59.46
8451;BME280;4262;50.980;13.892;2022-10-16T09:28:09;50780.13;;;-142.97;59.23
8451;BME280;4262;50.980;13.892;2022-10-16T09:30:38;50754.78;;;-142.97;59.00
8451;BME280;4262;50.980;13.892;2022-10-16T09:33:06;50731.38;;;-142.97;58.22
8451;BME280;4262;50.980;13.892;2022-10-16T09:35:37;50758.69;;;-142.97;58.42
8451;BME280;4262;50.980;13.892;2022-10-16T09:38:05;50760.63;;;-142.97;58.65
8451;BME280;4262;50.980;13.892;2022-10-16T09:40:34;50785.97;;;-142.97;59.38
8451;BME280;4262;50.980;13.892;2022-10-16T09:43:12;50785.97;;;-142.97;59.41
8451;BME280;4262;50.980;13.892;2022-10-16T09:46:02;50756.75;;;-142.97;60.18
8451;BME280;4262;50.980;13.892;2022-10-16T09:48:36;50776.25;;;-142.97;60.86
8451;BME280;4262;50.980;13.892;2022-10-16T09:51:05;50768.44;;;-142.97;60.54
8451;BME280;4262;50.980;13.892;2022-10-16T09:53:39;50743.09;;;-142.97;60.40
8451;BME280;4262;50.980;13.892;2022-10-16T09:56:06;50741.13;;;-142.97;59.88
8451;BME280;4262;50.980;13.892;2022-10-16T09:58:34;50715.78;;;-142.97;59.46
8451;BME280;4262;50.980;13.892;2022-10-16T10:01:02;50694.34;;;-142.97;57.80
8451;BME280;4262;50.980;13.892;2022-10-16T10:03:42;50647.53;;;-142.97;53.66
8451;BME280;4262;50.980;13.892;2022-10-16T10:06:28;50487.66;;;-142.97;53.55
8451;BME280;4262;50.980;13.892;2022-10-16T10:08:57;50561.75;;;-142.97;50.81
8451;BME280;4262;50.980;13.892;2022-10-16T10:11:44;50711.88;;;-142.97;50.31
8451;BME280;4262;50.980;13.892;2022-10-16T10:14:19;50745.03;;;-142.97;52.06
8451;BME280;4262;50.980;13.892;2022-10-16T10:16:48;50725.53;;;-142.97;52.60
8451;BME280;4262;50.980;13.892;2022-10-16T10:19:17;50727.50;;;-142.97;52.28
8451;BME280;4262;50.980;13.892;2022-10-16T10:21:45;50733.34;;;-142.97;52.83
8451;BME280;4262;50.980;13.892;2022-10-16T10:24:13;50772.34;;;-142.97;53.83
8451;BME280;4262;50.980;13.892;2022-10-16T10:26:47;50745.03;;;-142.97;52.80
8451;BME280;4262;50.980;13.892;2022-10-16T10:29:22;50729.44;;;-142.97;54.25
8451;BME280;4262;50.980;13.892;2022-10-16T10:32:00;50731.38;;;-142.97;53.05
8451;BME280;4262;50.980;13.892;2022-10-16T10:34:45;50743.09;;;-142.97;50.67
8451;BME280;4262;50.980;13.892;2022-10-16T10:37:28;50737.25;;;-142.97;51.10
8451;BME280;4262;50.980;13.892;2022-10-16T10:40:07;50661.19;;;-142.97;48.66
8451;BME280;4262;50.980;13.892;2022-10-16T10:42:43;50602.69;;;-142.97;49.16
8451;BME280;4262;50.980;13.892;2022-10-16T10:45:24;50741.13;;;-142.97;46.25
8451;BME280;4262;50.980;13.892;2022-10-16T10:48:03;50739.19;;;-142.97;48.20
8451;BME280;4262;50.980;13.892;2022-10-16T10:50:38;50633.91;;;-142.97;48.48
8451;BME280;4262;50.980;13.892;2022-10-16T10:53:15;50505.22;;;-142.97;44.96
8451;BME280;4262;50.980;13.892;2022-10-16T10:55:49;50470.13;;;-142.97;43.21
8451;BME280;4262;50.980;13.892;2022-10-16T10:58:48;50474.00;;;-142.97;40.45
8451;BME280;4262;50.980;13.892;2022-10-16T11:01:18;50708.00;;;-142.97;41.82
8451;BME280;4262;50.980;13.892;2022-10-16T11:04:03;50733.34;;;-142.97;43.10
8451;BME280;4262;50.980;13.892;2022-10-16T11:06:40;50713.84;;;-142.97;44.19
8451;BME280;4262;50.980;13.892;2022-10-16T11:09:12;50760.63;;;-142.97;45.25
8451;BME280;4262;50.980;13.892;2022-10-16T11:11:43;50739.19;;;-142.97;45.84
8451;BME280;4262;50.980;13.892;2022-10-16T11:14:16;50747.00;;;-142.97;46.87
8451;BME280;4262;50.980;13.892;2022-10-16T11:16:49;50733.34;;;-142.97;47.58
8451;BME280;4262;50.980;13.892;2022-10-16T11:19:28;50688.50;;;-142.97;46.94
8451;BME280;4262;50.980;13.892;2022-10-16T11:22:03;50729.44;;;-142.97;45.53
8451;BME280;4262;50.980;13.892;2022-10-16T11:24:36;50741.13;;;-142.97;46.56
8451;BME280;4262;50.980;13.892;2022-10-16T11:27:09;50741.13;;;-142.97;47.19
8451;BME280;4262;50.980;13.892;2022-10-16T11:29:45;50747.00;;;-142.97;46.38
8451;BME280;4262;50.980;13.892;2022-10-16T11:32:21;50743.09;;;-142.97;47.36
8451;BME280;4262;50.980;13.892;2022-10-16T11:34:55;50735.28;;;-142.97;46.96
8451;BME280;4262;50.980;13.892;2022-10-16T11:37:26;50717.75;;;-142.97;47.08
8451;BME280;4262;50.980;13.892;2022-10-16T11:40:03;50672.91;;;-142.97;47.09
8451;BME280;4262;50.980;13.892;2022-10-16T11:42:36;50708.00;;;-142.97;47.07
8451;BME280;4262;50.980;13.892;2022-10-16T11:45:13;50737.25;;;-142.97;45.93
8451;BME280;4262;50.980;13.892;2022-10-16T11:47:48;50729.44;;;-142.97;46.86
8451;BME280;4262;50.980;13.892;2022-10-16T11:50:23;50708.00;;;-142.97;46.73
8451;BME280;4262;50.980;13.892;2022-10-16T11:52:57;50729.44;;;-142.97;46.56
8451;BME280;4262;50.980;13.892;2022-10-16T11:55:32;50733.34;;;-142.97;46.99
8451;BME280;4262;50.980;13.892;2022-10-16T11:58:04;50715.78;;;-142.97;47.36
8451;BME280;4262;50.980;13.892;2022-10-16T12:00:37;50688.50;;;-142.97;45.54
8451;BME280;4262;50.980;13.892;2022-10-16T12:03:14;50721.63;;;-142.97;44.59
8451;BME280;4262;50.980;13.892;2022-10-16T12:05:55;50669.00;;;-142.97;46.19
8451;BME280;4262;50.980;13.892;2022-10-16T12:08:26;50579.31;;;-142.97;45.07
8451;BME280;4262;50.980;13.892;2022-10-16T12:11:06;50575.41;;;-142.97;43.13
8451;BME280;4262;50.980;13.892;2022-10-16T12:13:35;50669.00;;;-142.97;41.55
8451;BME280;4262;50.980;13.892;2022-10-16T12:16:20;50639.75;;;-142.97;41.29
8451;BME280;4262;50.980;13.892;2022-10-16T12:18:48;50674.84;;;-142.97;43.00
8451;BME280;4262;50.980;13.892;2022-10-16T12:21:17;50717.75;;;-142.97;42.33
8451;BME280;4262;50.980;13.892;2022-10-16T12:23:50;50752.84;;;-142.97;44.01
8451;BME280;4262;50.980;13.892;2022-10-16T12:26:25;50750.88;;;-142.97;43.46
8451;BME280;4262;50.980;13.892;2022-10-16T12:28:53;50715.78;;;-142.97;42.84
8451;BME280;4262;50.980;13.892;2022-10-16T12:31:20;50727.50;;;-142.97;44.03
8451;BME280;4262;50.980;13.892;2022-10-16T12:33:58;50719.69;;;-142.97;45.01
8451;BME280;4262;50.980;13.892;2022-10-16T12:36:29;50721.63;;;-142.97;45.06
8451;BME280;4262;50.980;13.892;2022-10-16T12:38:57;50729.44;;;-142.97;45.15
8451;BME280;4262;50.980;13.892;2022-10-16T12:41:25;50737.25;;;-142.97;44.96
8451;BME280;4262;50.980;13.892;2022-10-16T12:43:53;50750.88;;;-142.97;45.89
8451;BME280;4262;50.980;13.892;2022-10-16T12:46:23;50731.38;;;-142.97;45.07
8451;BME280;4262;50.980;13.892;2022-10-16T12:48:50;50696.28;;;-142.97;44.97
8451;BME280;4262;50.980;13.892;2022-10-16T12:51:24;50676.78;;;-142.97;44.95
8451;BME280;4262;50.980;13.892;2022-10-16T12:54:00;50704.09;;;-142.97;43.72
8451;BME280;4262;50.980;13.892;2022-10-16T12:56:36;50696.28;;;-142.97;44.55
8451;BME280;4262;50.980;13.892;2022-10-16T12:59:16;50711.88;;;-142.97;43.78
8451;BME280;4262;50.980;13.892;2022-10-16T13:01:56;50571.50;;;-142.97;42.84
8451;BME280;4262;50.980;13.892;2022-10-16T13:04:40;50657.28;;;-142.97;42.60
8451;BME280;4262;50.980;13.892;2022-10-16T13:07:21;50674.84;;;-142.97;41.96
8451;BME280;4262;50.980;13.892;2022-10-16T13:10:01;50653.41;;;-142.97;42.49
8451;BME280;4262;50.980;13.892;2022-10-16T13:12:45;50715.78;;;-142.97;43.03
8451;BME280;4262;50.980;13.892;2022-10-16T13:15:26;50700.19;;;-142.97;43.73
8451;BME280;4262;50.980;13.892;2022-10-16T13:18:05;50735.28;;;-142.97;43.44
8451;BME280;4262;50.980;13.892;2022-10-16T13:20:49;50735.28;;;-142.97;43.44
8451;BME280;4262;50.980;13.892;2022-10-16T13:23:23;50725.53;;;-142.97;43.52
8451;BME280;4262;50.980;13.892;2022-10-16T13:26:01;50731.38;;;-142.97;43.98
8451;BME280;4262;50.980;13.892;2022-10-16T13:28:35;50567.59;;;-142.97;45.16
8451;BME280;4262;50.980;13.892;2022-10-16T13:31:05;50700.19;;;-142.97;42.68
8451;BME280;4262;50.980;13.892;2022-10-16T13:33:39;50713.84;;;-142.97;42.91
8451;BME280;4262;50.980;13.892;2022-10-16T13:36:19;50729.44;;;-142.97;43.15
8451;BME280;4262;50.980;13.892;2022-10-16T13:38:45;50612.44;;;-142.97;43.97
8451;BME280;4262;50.980;13.892;2022-10-16T13:41:16;50739.19;;;-142.97;44.40
8451;BME280;4262;50.980;13.892;2022-10-16T13:43:46;50721.63;;;-142.97;44.24
8451;BME280;4262;50.980;13.892;2022-10-16T13:46:16;50731.38;;;-142.97;44.93
8451;BME280;4262;50.980;13.892;2022-10-16T13:48:43;50739.19;;;-142.97;44.57
8451;BME280;4262;50.980;13.892;2022-10-16T13:51:13;50762.59;;;-142.97;45.77
8451;BME280;4262;50.980;13.892;2022-10-16T13:53:41;50758.69;;;-142.97;46.06
8451;BME280;4262;50.980;13.892;2022-10-16T13:56:12;50760.63;;;-142.97;46.94
8451;BME280;4262;50.980;13.892;2022-10-16T13:58:41;50747.00;;;-142.97;46.56
8451;BME280;4262;50.980;13.892;2022-10-16T14:01:16;50747.00;;;-142.97;45.31
8451;BME280;4262;50.980;13.892;2022-10-16T14:03:44;50764.53;;;-142.97;46.88
8451;BME280;4262;50.980;13.892;2022-10-16T14:06:14;50756.75;;;-142.97;47.64
8451;BME280;4262;50.980;13.892;2022-10-16T14:08:44;50733.34;;;-142.97;49.58
8451;BME280;4262;50.980;13.892;2022-10-16T14:11:13;50774.28;;;-142.97;49.92
8451;BME280;4262;50.980;13.892;2022-10-16T14:13:44;50743.09;;;-142.97;51.32
8451;BME280;4262;50.980;13.892;2022-10-16T14:16:18;50778.19;;;-142.97;52.28
8451;BME280;4262;50.980;13.892;2022-10-16T14:18:50;50754.78;;;-142.97;52.02
8451;BME280;4262;50.980;13.892;2022-10-16T14:21:21;50778.19;;;-142.97;52.96
8451;BME280;4262;50.980;13.892;2022-10-16T14:23:48;50739.19;;;-142.97;53.70
8451;BME280;4262;50.980;13.892;2022-10-16T14:26:17;50784.03;;;-142.97;53.71
8451;BME280;4262;50.980;13.892;2022-10-16T14:28:47;50801.59;;;-142.97;54.40
8451;BME280;4262;50.980;13.892;2022-10-16T14:31:36;50737.25;;;-142.97;55.26
8451;BME280;4262;50.980;13.892;2022-10-16T14:34:23;50754.78;;;-142.97;55.91
8451;BME280;4262;50.980;13.892;2022-10-16T14:36:50;50784.03;;;-142.97;56.75
8451;BME280;4262;50.980;13.892;2022-10-16T14:39:19;50748.94;;;-142.97;58.20
8451;BME280;4262;50.980;13.892;2022-10-16T14:41:48;50739.19;;;-142.97;58.34
8451;BME280;4262;50.980;13.892;2022-10-16T14:44:18;50784.03;;;-142.97;59.50
8451;BME280;4262;50.980;13.892;2022-10-16T14:46:47;50766.50;;;-142.97;58.35
8451;BME280;4262;50.980;13.892;2022-10-16T14:49:17;50743.09;;;-142.97;58.63
8451;BME280;4262;50.980;13.892;2022-10-16T14:51:46;50743.09;;;-142.97;58.13
8451;BME280;4262;50.980;13.892;2022-10-16T14:54:15;50762.59;;;-142.97;59.84
8451;BME280;4262;50.980;13.892;2022-10-16T14:56:46;50713.84;;;-142.97;60.05
8451;BME280;4262;50.980;13.892;2022-10-16T14:59:17;50791.84;;;-142.97;61.00
8451;BME280;4262;50.980;13.892;2022-10-16T15:01:45;50762.59;;;-142.97;61.15
8451;BME280;4262;50.980;13.892;2022-10-16T15:04:13;50785.97;;;-142.97;61.54
8451;BME280;4262;50.980;13.892;2022-10-16T15:06:42;50756.75;;;-142.97;61.97
8451;BME280;4262;50.980;13.892;2022-10-16T15:09:09;50756.75;;;-142.97;62.07
8451;BME280;4262;50.980;13.892;2022-10-16T15:11:36;50758.69;;;-142.97;61.75
8451;BME280;4262;50.980;13.892;2022-10-16T15:14:03;50756.75;;;-142.97;61.51
8451;BME280;4262;50.980;13.892;2022-10-16T15:16:32;50758.69;;;-142.97;62.33
8451;BME280;4262;50.980;13.892;2022-10-16T15:18:59;50780.13;;;-142.97;61.76
8451;BME280;4262;50.980;13.892;2022-10-16T15:21:28;50748.94;;;-142.97;62.50
8451;BME280;4262;50.980;13.892;2022-10-16T15:23:56;50778.19;;;-142.97;62.77
8451;BME280;4262;50.980;13.892;2022-10-16T15:26:24;50758.69;;;-142.97;62.81
8451;BME280;4262;50.980;13.892;2022-10-16T15:28:51;50743.09;;;-142.97;63.16
8451;BME280;4262;50.980;13.892;2022-10-16T15:31:18;50762.59;;;-142.97;63.54
8451;BME280;4262;50.980;13.892;2022-10-16T15:33:49;50776.25;;;-142.97;63.65
8451;BME280;4262;50.980;13.892;2022-10-16T15:36:25;50748.94;;;-142.97;62.42
8451;BME280;4262;50.980;13.892;2022-10-16T15:38:52;50768.44;;;-142.97;61.38
8451;BME280;4262;50.980;13.892;2022-10-16T15:41:19;50772.34;;;-142.97;62.04
8451;BME280;4262;50.980;13.892;2022-10-16T15:43:47;50793.78;;;-142.97;62.62
8451;BME280;4262;50.980;13.892;2022-10-16T15:46:15;50793.78;;;-142.97;62.75
8451;BME280;4262;50.980;13.892;2022-10-16T15:48:43;50756.75;;;-142.97;62.74
8451;BME280;4262;50.980;13.892;2022-10-16T15:51:12;50758.69;;;-142.97;63.04
8451;BME280;4262;50.980;13.892;2022-10-16T15:53:39;50772.34;;;-142.97;63.15
8451;BME280;4262;50.980;13.892;2022-10-16T15:56:07;50789.88;;;-142.97;64.05
8451;BME280;4262;50.980;13.892;2022-10-16T15:58:34;50754.78;;;-142.97;64.53
8451;BME280;4262;50.980;13.892;2022-10-16T16:01:01;50787.94;;;-142.97;64.51
8451;BME280;4262;50.980;13.892;2022-10-16T16:03:30;50774.28;;;-142.97;64.77
8451;BME280;4262;50.980;13.892;2022-10-16T16:05:58;50764.53;;;-142.97;65.46
8451;BME280;4262;50.980;13.892;2022-10-16T16:08:26;50778.19;;;-142.97;66.83
8451;BME280;4262;50.980;13.892;2022-10-16T16:10:59;50803.53;;;-142.97;66.70
8451;BME280;4262;50.980;13.892;2022-10-16T16:13:26;50778.19;;;-142.97;68.81
8451;BME280;4262;50.980;13.892;2022-10-16T16:15:53;50789.88;;;-142.97;69.45
8451;BME280;4262;50.980;13.892;2022-10-16T16:18:20;50756.75;;;-142.97;70.64
8451;BME280;4262;50.980;13.892;2022-10-16T16:20:47;50735.28;;;-142.97;72.04
8451;BME280;4262;50.980;13.892;2022-10-16T16:23:14;50784.03;;;-142.97;71.37
8451;BME280;4262;50.980;13.892;2022-10-16T16:25:42;50801.59;;;-142.97;73.35
8451;BME280;4262;50.980;13.892;2022-10-16T16:28:09;50791.84;;;-142.97;74.07
8451;BME280;4262;50.980;13.892;2022-10-16T16:30:39;50762.59;;;-142.97;73.93
8451;BME280;4262;50.980;13.892;2022-10-16T16:33:06;50785.97;;;-142.97;73.94
8451;BME280;4262;50.980;13.892;2022-10-16T16:35:33;50785.97;;;-142.97;74.05
8451;BME280;4262;50.980;13.892;2022-10-16T16:38:00;50770.38;;;-142.97;73.87
8451;BME280;4262;50.980;13.892;2022-10-16T16:40:26;50762.59;;;-142.97;74.05
8451;BME280;4262;50.980;13.892;2022-10-16T16:42:55;50772.34;;;-142.97;74.14
8451;BME280;4262;50.980;13.892;2022-10-16T16:45:21;50770.38;;;-142.97;74.30
8451;BME280;4262;50.980;13.892;2022-10-16T16:47:51;50768.44;;;-142.97;74.70
8451;BME280;4262;50.980;13.892;2022-10-16T16:50:18;50801.59;;;-142.97;75.22
8451;BME280;4262;50.980;13.892;2022-10-16T16:52:45;50764.53;;;-142.97;75.45
8451;BME280;4262;50.980;13.892;2022-10-16T16:55:12;50776.25;;;-142.97;75.33
8451;BME280;4262;50.980;13.892;2022-10-16T16:57:38;50762.59;;;-142.97;74.92
8451;BME280;4262;50.980;13.892;2022-10-16T17:00:08;50797.69;;;-142.97;74.90
8451;BME280;4262;50.980;13.892;2022-10-16T17:02:35;50789.88;;;-142.97;75.39
8451;BME280;4262;50.980;13.892;2022-10-16T17:05:02;50778.19;;;-142.97;75.93
8451;BME280;4262;50.980;13.892;2022-10-16T17:07:31;50782.09;;;-142.97;75.66
8451;BME280;4262;50.980;13.892;2022-10-16T17:10:00;50785.97;;;-142.97;75.89
8451;BME280;4262;50.980;13.892;2022-10-16T17:12:28;50768.44;;;-142.97;75.59
8451;BME280;4262;50.980;13.892;2022-10-16T17:14:55;50789.88;;;-142.97;75.14
8451;BME280;4262;50.980;13.892;2022-10-16T17:17:22;50758.69;;;-142.97;74.52
8451;BME280;4262;50.980;13.892;2022-10-16T17:19:49;50778.19;;;-142.97;73.96
8451;BME280;4262;50.980;13.892;2022-10-16T17:22:17;50772.34;;;-142.97;74.55
8451;BME280;4262;50.980;13.892;2022-10-16T17:24:47;50758.69;;;-142.97;74.41
8451;BME280;4262;50.980;13.892;2022-10-16T17:27:15;50778.19;;;-142.97;74.19
8451;BME280;4262;50.980;13.892;2022-10-16T17:29:41;50768.44;;;-142.97;74.46
8451;BME280;4262;50.980;13.892;2022-10-16T17:32:08;50756.75;;;-142.97;74.03
8451;BME280;4262;50.980;13.892;2022-10-16T17:34:36;50754.78;;;-142.97;73.90
8451;BME280;4262;50.980;13.892;2022-10-16T17:37:04;50774.28;;;-142.97;74.33
8451;BME280;4262;50.980;13.892;2022-10-16T17:39:31;50756.75;;;-142.97;75.78
8451;BME280;4262;50.980;13.892;2022-10-16T17:41:58;50772.34;;;-142.97;76.31
8451;BME280;4262;50.980;13.892;2022-10-16T17:44:25;50760.63;;;-142.97;76.62
8451;BME280;4262;50.980;13.892;2022-10-16T17:46:52;50778.19;;;-142.97;77.02
8451;BME280;4262;50.980;13.892;2022-10-16T17:49:19;50774.28;;;-142.97;76.62
8451;BME280;4262;50.980;13.892;2022-10-16T17:51:50;50789.88;;;-142.97;76.66
8451;BME280;4262;50.980;13.892;2022-10-16T17:54:18;50756.75;;;-142.97;75.78
8451;BME280;4262;50.980;13.892;2022-10-16T17:56:45;50797.69;;;-142.97;75.38
8451;BME280;4262;50.980;13.892;2022-10-16T17:59:13;50795.75;;;-142.97;74.71
8451;BME280;4262;50.980;13.892;2022-10-16T18:01:40;50758.69;;;-142.97;74.64
8451;BME280;4262;50.980;13.892;2022-10-16T18:04:11;50805.50;;;-142.97;75.06
8451;BME280;4262;50.980;13.892;2022-10-16T18:06:39;50760.63;;;-142.97;75.64
8451;BME280;4262;50.980;13.892;2022-10-16T18:09:10;50770.38;;;-142.97;74.94